Time,TemperatureF,DewpointF,PressureIn,WindDirection,WindDirectionDegrees,WindSpeedMPH,WindSpeedGustMPH,Humidity,HourlyPrecipIn,Conditions,Clouds,dailyrainin,SolarRadiationWatts/m^2,SoftwareType,DateUTC
2013-05-03 00:03:00,60.0,57.0,-100.00,SSE,155,0.0,0.0,89,0.00,,,0.00,0.000000,,2013-05-03 04:03:00,
2013-05-03 00:32:00,59.0,57.0,-100.00,SSE,158,0.0,0.0,92,0.00,,,0.00,0.000000,,2013-05-03 04:32:00,
2013-05-03 00:43:00,59.0,57.0,-100.00,SSE,158,0.0,0.0,92,0.00,,,0.00,0.000000,,2013-05-03 04:43:00,
2013-05-03 00:53:00,59.0,57.0,-100.00,SSE,158,0.0,0.0,92,0.00,,,0.00,0.000000,,2013-05-03 04:53:00,
2013-05-03 01:03:00,59.0,57.0,-100.00,SSE,158,0.0,0.0,92,0.00,,,0.00,0.000000,,2013-05-03 05:03:00,
2013-05-03 01:32:00,64.0,52.0,-100.00,South,188,0.0,6.0,65,0.00,,,0.00,0.000000,,2013-05-03 05:32:00,
2013-05-03 01:42:00,64.0,52.0,-100.00,South,188,0.0,6.0,65,0.00,,,0.00,0.000000,,2013-05-03 05:42:00,
2013-05-03 01:52:00,64.0,52.0,-100.00,South,188,0.0,6.0,65,0.00,,,0.00,0.000000,,2013-05-03 05:52:00,
2013-05-03 02:02:00,64.0,52.0,-100.00,South,188,0.0,6.0,65,0.00,,,0.00,0.000000,,2013-05-03 06:02:00,
2013-05-03 02:32:00,63.0,52.0,-100.00,SSW,203,0.0,2.0,68,0.00,,,-99.99,0.000000,,2013-05-03 06:32:00,
2013-05-03 02:42:00,63.0,52.0,-100.00,SSW,203,0.0,2.0,68,0.00,,,-99.99,0.000000,,2013-05-03 06:42:00,
2013-05-03 02:52:00,63.0,52.0,-100.00,SSW,203,0.0,2.0,68,0.00,,,-99.99,0.000000,,2013-05-03 06:52:00,
2013-05-03 03:02:00,63.0,52.0,-100.00,SSW,203,0.0,2.0,68,0.00,,,-99.99,0.000000,,2013-05-03 07:02:00,
2013-05-03 03:32:00,60.0,52.0,-100.00,SSW,194,0.0,0.0,76,0.00,,,-99.99,0.000000,,2013-05-03 07:32:00,
2013-05-03 03:42:00,60.0,52.0,-100.00,SSW,194,0.0,0.0,76,0.00,,,-99.99,0.000000,,2013-05-03 07:42:00,
2013-05-03 03:52:00,60.0,52.0,-100.00,SSW,194,0.0,0.0,76,0.00,,,-99.99,0.000000,,2013-05-03 07:52:00,
2013-05-03 04:02:00,60.0,52.0,-100.00,SSW,194,0.0,0.0,76,0.00,,,-99.99,0.000000,,2013-05-03 08:02:00,
2013-05-03 04:32:00,57.0,54.0,-100.00,ENE,65,0.0,0.0,90,0.00,,,0.00,0.000000,,2013-05-03 08:32:00,
2013-05-03 04:42:00,57.0,54.0,-100.00,ENE,65,0.0,0.0,90,0.00,,,0.00,0.000000,,2013-05-03 08:42:00,
2013-05-03 04:53:00,57.0,54.0,-100.00,ENE,65,0.0,0.0,90,0.00,,,0.00,0.000000,,2013-05-03 08:53:00,
2013-05-03 05:01:00,57.0,54.0,-100.00,ENE,65,0.0,0.0,90,0.00,,,0.00,0.000000,,2013-05-03 09:01:00,
2013-05-03 05:33:00,56.0,53.0,-100.00,South,173,0.0,0.0,91,0.00,,,0.00,0.000000,,2013-05-03 09:33:00,
2013-05-03 05:42:00,56.0,53.0,-100.00,South,173,0.0,0.0,91,0.00,,,0.00,0.000000,,2013-05-03 09:42:00,
2013-05-03 05:53:00,56.0,53.0,-100.00,South,173,0.0,0.0,91,0.00,,,0.00,0.000000,,2013-05-03 09:53:00,
2013-05-03 06:03:00,56.0,53.0,-100.00,South,173,0.0,0.0,91,0.00,,,0.00,0.000000,,2013-05-03 10:03:00,
2013-05-03 06:32:00,55.0,53.0,-100.00,SE,142,0.0,0.0,93,0.00,,,0.00,0.000000,,2013-05-03 10:32:00,
2013-05-03 06:42:00,55.0,53.0,-100.00,SE,142,0.0,0.0,93,0.00,,,0.00,0.000000,,2013-05-03 10:42:00,
2013-05-03 06:52:00,55.0,53.0,-100.00,SE,142,0.0,0.0,93,0.00,,,0.00,0.000000,,2013-05-03 10:52:00,
2013-05-03 07:02:00,55.0,53.0,-100.00,SE,142,0.0,0.0,93,0.00,,,0.00,0.000000,,2013-05-03 11:02:00,
2013-05-03 07:32:00,56.0,54.0,-100.00,NNW,348,0.0,0.0,94,0.00,,,0.00,2.000000,,2013-05-03 11:32:00,
2013-05-03 07:42:00,56.0,54.0,-100.00,NNW,348,0.0,0.0,94,0.00,,,0.00,2.000000,,2013-05-03 11:42:00,
2013-05-03 07:52:00,56.0,54.0,-100.00,NNW,348,0.0,0.0,94,0.00,,,0.00,2.000000,,2013-05-03 11:52:00,
2013-05-03 08:02:00,56.0,54.0,-100.00,NNW,348,0.0,0.0,94,0.00,,,0.00,2.000000,,2013-05-03 12:02:00,
2013-05-03 08:32:00,58.0,55.0,-100.00,North,7,0.0,0.0,90,0.00,,,-99.99,58.000000,,2013-05-03 12:32:00,
2013-05-03 08:42:00,58.0,55.0,-100.00,North,7,0.0,0.0,90,0.00,,,-99.99,58.000000,,2013-05-03 12:42:00,
2013-05-03 08:52:00,58.0,55.0,-100.00,North,7,0.0,0.0,90,0.00,,,-99.99,58.000000,,2013-05-03 12:52:00,
2013-05-03 09:01:00,58.0,55.0,-100.00,North,7,0.0,0.0,90,0.00,,,-99.99,58.000000,,2013-05-03 13:01:00,
2013-05-03 09:32:00,63.0,56.0,-100.00,NE,34,0.0,4.0,77,0.00,,,0.00,195.000000,,2013-05-03 13:32:00,
2013-05-03 09:42:00,63.0,56.0,-100.00,NE,34,0.0,4.0,77,0.00,,,0.00,195.000000,,2013-05-03 13:42:00,
2013-05-03 09:52:00,63.0,56.0,-100.00,NE,34,0.0,4.0,77,0.00,,,0.00,195.000000,,2013-05-03 13:52:00,
2013-05-03 10:02:00,63.0,56.0,-100.00,NE,34,0.0,4.0,77,0.00,,,0.00,195.000000,,2013-05-03 14:02:00,
2013-05-03 10:32:00,67.0,56.0,-100.00,North,352,0.0,7.0,69,0.00,,,0.00,314.000000,,2013-05-03 14:32:00,
2013-05-03 10:42:00,67.0,56.0,-100.00,North,352,0.0,7.0,69,0.00,,,0.00,314.000000,,2013-05-03 14:42:00,
2013-05-03 10:52:00,67.0,56.0,-100.00,North,352,0.0,7.0,69,0.00,,,0.00,314.000000,,2013-05-03 14:52:00,
2013-05-03 11:01:00,67.0,56.0,-100.00,North,352,0.0,7.0,69,0.00,,,0.00,314.000000,,2013-05-03 15:01:00,
2013-05-03 11:32:00,70.0,54.0,-100.00,SE,140,1.0,8.0,57,0.00,,,0.00,378.000000,,2013-05-03 15:32:00,
2013-05-03 11:43:00,70.0,54.0,-100.00,SE,140,1.0,8.0,57,0.00,,,0.00,378.000000,,2013-05-03 15:43:00,
2013-05-03 11:53:00,70.0,54.0,-100.00,SE,140,1.0,8.0,57,0.00,,,0.00,378.000000,,2013-05-03 15:53:00,
2013-05-03 12:03:00,70.0,54.0,-100.00,SE,140,1.0,8.0,57,0.00,,,0.00,378.000000,,2013-05-03 16:03:00,
2013-05-03 12:33:00,72.0,53.0,-100.00,SSW,199,4.0,14.0,51,0.00,,,0.00,606.000000,,2013-05-03 16:33:00,
2013-05-03 12:42:00,72.0,53.0,-100.00,SSW,199,4.0,14.0,51,0.00,,,0.00,606.000000,,2013-05-03 16:42:00,
2013-05-03 12:52:00,72.0,53.0,-100.00,SSW,199,4.0,14.0,51,0.00,,,0.00,606.000000,,2013-05-03 16:52:00,
2013-05-03 13:02:00,72.0,53.0,-100.00,SSW,199,4.0,14.0,51,0.00,,,0.00,606.000000,,2013-05-03 17:02:00,
2013-05-03 13:32:00,74.0,49.0,-100.00,SSE,167,7.0,20.0,41,0.00,,,0.00,588.000000,,2013-05-03 17:32:00,
2013-05-03 13:42:00,74.0,49.0,-100.00,SSE,167,7.0,20.0,41,0.00,,,0.00,588.000000,,2013-05-03 17:42:00,
2013-05-03 13:52:00,74.0,49.0,-100.00,SSE,167,7.0,20.0,41,0.00,,,0.00,588.000000,,2013-05-03 17:52:00,
2013-05-03 14:01:00,74.0,49.0,-100.00,SSE,167,7.0,20.0,41,0.00,,,0.00,588.000000,,2013-05-03 18:01:00,
2013-05-03 14:32:00,74.0,46.0,-100.00,SSE,167,8.0,23.0,37,0.00,,,0.00,568.000000,,2013-05-03 18:32:00,
2013-05-03 14:42:00,74.0,46.0,-100.00,SSE,167,8.0,23.0,37,0.00,,,0.00,568.000000,,2013-05-03 18:42:00,
2013-05-03 14:52:00,74.0,46.0,-100.00,SSE,167,8.0,23.0,37,0.00,,,0.00,568.000000,,2013-05-03 18:52:00,
2013-05-03 15:01:00,74.0,46.0,-100.00,SSE,167,8.0,23.0,37,0.00,,,0.00,568.000000,,2013-05-03 19:01:00,
2013-05-03 15:32:00,71.0,51.0,-100.00,SSW,192,11.0,24.0,50,0.00,,,0.00,360.000000,,2013-05-03 19:32:00,
2013-05-03 15:42:00,71.0,51.0,-100.00,SSW,192,11.0,24.0,50,0.00,,,0.00,360.000000,,2013-05-03 19:42:00,
2013-05-03 15:52:00,71.0,51.0,-100.00,SSW,192,11.0,24.0,50,0.00,,,0.00,360.000000,,2013-05-03 19:52:00,
2013-05-03 16:02:00,71.0,51.0,-100.00,SSW,192,11.0,24.0,50,0.00,,,0.00,360.000000,,2013-05-03 20:02:00,
2013-05-03 16:32:00,65.0,56.0,-100.00,SSW,199,6.0,26.0,73,0.00,,,0.00,215.000000,,2013-05-03 20:32:00,
2013-05-03 16:42:00,65.0,56.0,-100.00,SSW,199,6.0,26.0,73,0.00,,,0.00,215.000000,,2013-05-03 20:42:00,
2013-05-03 16:52:00,65.0,56.0,-100.00,SSW,199,6.0,26.0,73,0.00,,,0.00,215.000000,,2013-05-03 20:52:00,
2013-05-03 17:02:00,65.0,56.0,-100.00,SSW,199,6.0,26.0,73,0.00,,,0.00,215.000000,,2013-05-03 21:02:00,
2013-05-03 17:33:00,66.0,55.0,-100.00,South,178,0.0,13.0,68,0.00,,,0.00,216.000000,,2013-05-03 21:33:00,
2013-05-03 17:43:00,66.0,55.0,-100.00,South,178,0.0,13.0,68,0.00,,,0.00,216.000000,,2013-05-03 21:43:00,
2013-05-03 17:53:00,66.0,55.0,-100.00,South,178,0.0,13.0,68,0.00,,,0.00,216.000000,,2013-05-03 21:53:00,
2013-05-03 18:03:00,66.0,55.0,-100.00,South,178,0.0,13.0,68,0.00,,,0.00,216.000000,,2013-05-03 22:03:00,
2013-05-03 21:32:00,64.0,50.0,-100.00,SSW,195,1.0,13.0,61,-99.99,,,0.00,3.000000,,2013-05-04 01:32:00,
2013-05-03 21:42:00,64.0,50.0,-100.00,SSW,195,1.0,13.0,61,-99.99,,,0.00,3.000000,,2013-05-04 01:42:00,
2013-05-03 21:52:00,64.0,50.0,-100.00,SSW,195,1.0,13.0,61,-99.99,,,0.00,3.000000,,2013-05-04 01:52:00,
2013-05-03 22:02:00,64.0,50.0,-100.00,SSW,195,1.0,13.0,61,-99.99,,,0.00,3.000000,,2013-05-04 02:02:00,
2013-05-03 22:32:00,65.0,50.0,-100.00,South,177,2.0,12.0,59,0.00,,,0.00,0.000000,,2013-05-04 02:32:00,
2013-05-03 22:42:00,65.0,50.0,-100.00,South,177,2.0,12.0,59,0.00,,,0.00,0.000000,,2013-05-04 02:42:00,
2013-05-03 22:52:00,65.0,50.0,-100.00,South,177,2.0,12.0,59,0.00,,,0.00,0.000000,,2013-05-04 02:52:00,
2013-05-03 23:02:00,65.0,50.0,-100.00,South,177,2.0,12.0,59,0.00,,,0.00,0.000000,,2013-05-04 03:02:00,
2013-05-03 23:33:00,65.0,49.0,-100.00,SE,130,7.0,17.0,57,0.00,,,0.00,0.000000,,2013-05-04 03:33:00,
2013-05-03 23:43:00,65.0,49.0,-100.00,SE,130,7.0,17.0,57,0.00,,,0.00,0.000000,,2013-05-04 03:43:00,
2013-05-03 23:53:00,65.0,49.0,-100.00,SE,130,7.0,17.0,57,0.00,,,0.00,0.000000,,2013-05-04 03:53:00,